Latest Weather Observations for Badgerys Creek

IDN60901

Issued at 10:45 pm EST Thursday 2 October 2014 (issued every 10 minutes, with the page automatically refreshed every 10 minutes)

About weather observations | Map of Sydney area stations | Latest observations for Sydney area | Other Formats
Station Details ID: 067108 Name: BADGERYS CREEK AWS Lat: -33.90 Lon: 150.73 Height: 81.2 m
Data from the previous 72 hours. | See also: Recent months at Badgerys Creek
Date/Time
EST
Tmp

°C
App
Tmp
°C
Dew
Point
°C
Rel
Hum
%
Delta-T

°C
Wind Press
QNH
hPa
Press
MSL
hPa
Rain
since
9 am
mm
Dir
 
Spd
km/h
Gust
km/h
Spd
kts
Gust
kts
02/10:30pm 12.4 10.5 9.1 80 1.7 SW 9 11 5 6 1020.2 1020.0 0.0
02/10:00pm 13.1 11.7 9.5 79 1.8 SSW 7 9 4 5 1020.1 1019.9 0.0
02/09:30pm 12.2 10.3 9.0 81 1.6 SW 9 11 5 6 1020.1 1019.9 0.0
02/09:00pm 14.3 13.5 9.7 74 2.4 SSW 4 6 2 3 1020.0 1019.8 0.0
02/08:30pm 14.7 13.4 10.1 74 2.4 SW 7 9 4 5 1019.8 1019.6 0.0
02/08:00pm 15.0 13.8 10.2 73 2.5 SSW 7 11 4 6 1019.4 1019.2 0.0
02/07:30pm 16.2 15.0 10.3 68 3.1 S 7 13 4 7 1019.0 1018.8 0.0
02/07:00pm 17.3 14.9 10.2 63 3.8 SSE 13 19 7 10 1018.5 1018.3 0.0
02/06:30pm 18.6 16.2 9.9 57 4.6 SSE 13 19 7 10 1017.9 1017.7 0.0
02/06:00pm 20.0 17.5 8.4 47 6.1 SE 11 15 6 8 1017.1 1017.0 0.0
02/05:30pm 22.0 19.6 5.4 34 8.3 NNE 7 11 4 6 1016.6 1016.5 0.0
02/05:00pm 23.1 20.8 5.5 32 8.9 NNE 7 9 4 5 1016.4 1016.3 0.0
02/04:30pm 23.8 20.9 4.7 29 9.5 NNE 9 13 5 7 1016.4 1016.3 0.0
02/04:00pm 24.0 21.7 4.9 29 9.6 NE 6 11 3 6 1016.4 1016.3 0.0
02/03:30pm 23.9 21.3 4.3 28 9.7 NNE 7 15 4 8 1016.3 1016.2 0.0
02/03:00pm 23.7 20.7 4.1 28 9.7 NNE 9 15 5 8 1016.5 1016.4 0.0
02/02:00pm 23.3 20.6 3.8 28 9.5 NE 7 13 4 7 1017.2 1017.1 0.0
02/11:00am 19.7 16.3 2.1 31 8.1 WSW 9 15 5 8 1020.5 1020.3 0.0
02/10:30am 18.9 16.2 3.9 37 7.1 N 7 15 4 8 1020.8 1020.6 0.0
02/10:00am 17.9 14.8 3.4 38 6.7 WNW 9 17 5 9 1021.3 1021.1 0.0
02/09:30am 17.1 14.7 5.4 46 5.7 NNW 7 15 4 8 1021.8 1021.6 0.0
02/09:00am 16.0 13.9 6.7 54 4.6 N 7 13 4 7 1022.1 1021.9 0.0
02/08:30am 14.2 13.1 6.8 61 3.6 NNE 2 6 1 3 1022.4 1022.2 0.0
02/08:00am 12.5 10.7 7.2 70 2.6 N 6 9 3 5 1022.4 1022.2 0.0
02/07:30am 11.3 9.8 6.8 74 2.1 NNW 4 7 2 4 1022.5 1022.3 0.0
02/07:00am 9.1 7.7 7.4 89 0.8 NW 4 7 2 4 1022.5 1022.3 0.0
02/06:30am 6.7 5.1 6.3 97 0.2 NW 4 6 2 3 1022.6 1022.4 0.0
02/06:00am 5.1 3.5 4.7 97 0.2 WSW 2 6 1 3 1022.5 1022.3 0.0
02/05:30am 5.1 3.9 4.8 98 0.1 CALM 0 0 0 0 1022.3 1022.1 0.0
02/05:00am 4.9 3.7 4.6 98 0.1 CALM 0 0 0 0 1022.3 1022.1 0.0
02/04:30am 5.2 4.0 4.5 95 0.3 SW 0 0 0 0 1022.1 1021.9 0.0
02/04:00am 6.0 4.8 4.8 92 0.5 CALM 0 0 0 0 1021.9 1021.7 0.0
02/03:30am 5.9 4.3 4.4 90 0.6 SW 2 4 1 2 1021.9 1021.7 0.0
02/03:00am 6.1 3.8 4.7 91 0.6 WSW 6 7 3 4 1021.9 1021.7 0.0
02/02:30am 6.6 4.6 4.6 87 0.9 SW 4 4 2 2 1022.1 1021.9 0.0
02/02:00am 6.4 4.0 4.4 87 0.9 SW 6 7 3 4 1022.5 1022.3 0.0
02/01:30am 7.4 4.9 4.7 83 1.2 WSW 7 7 4 4 1022.4 1022.2 0.0
02/01:00am 7.1 4.9 5.3 88 0.8 SW 6 7 3 4 1022.9 1022.8 0.0
02/12:30am 7.4 5.1 5.0 85 1.1 WSW 6 6 3 3 1023.2 1023.1 0.0
02/12:00am 8.3 6.1 5.2 81 1.4 WSW 6 6 3 3 1023.4 1023.3 0.0
 
Date/Time
EST
Tmp

°C
App
Tmp
°C
Dew
Point
°C
Rel
Hum
%
Delta-T

°C
Wind Press
QNH
hPa
Press
MSL
hPa
Rain
since
9 am
mm
Dir
 
Spd
km/h
Gust
km/h
Spd
kts
Gust
kts
01/11:30pm 8.7 6.8 4.7 76 1.8 WSW 4 7 2 4 1023.3 1023.2 0.0
01/11:00pm 8.8 6.3 4.8 76 1.8 WSW 7 7 4 4 1023.4 1023.3 0.0
01/10:30pm 9.1 6.6 4.9 75 1.9 WSW 7 7 4 4 1023.5 1023.4 0.0
01/10:00pm 8.5 6.3 5.1 79 1.5 WSW 6 7 3 4 1023.5 1023.4 0.0
01/09:30pm 8.7 6.4 4.9 77 1.7 SW 6 7 3 4 1023.4 1023.3 0.0
01/09:00pm 11.1 9.0 4.1 62 3.1 SW 4 4 2 2 1023.0 1022.9 0.0
01/08:30pm 9.9 7.6 4.7 70 2.3 SSW 6 7 3 4 1022.8 1022.6 0.0
01/08:00pm 10.9 8.5 4.4 64 2.9 SSW 6 7 3 4 1022.5 1022.3 0.0
01/07:30pm 11.4 10.1 3.9 60 3.4 CALM 0 0 0 0 1022.3 1022.1 0.0
01/07:00pm 12.5 11.1 3.7 55 3.9 CALM 0 0 0 0 1021.8 1021.6 0.0
01/06:30pm 13.1 10.9 3.5 52 4.3 ESE 4 7 2 4 1021.3 1021.1 0.0
01/06:00pm 14.1 11.4 3.6 49 4.8 ESE 7 15 4 8 1020.5 1020.3 0.0
01/05:30pm 15.4 11.2 3.9 46 5.3 SE 15 26 8 14 1020.3 1020.1 0.0
01/05:00pm 16.6 12.0 3.7 42 6.0 SE 17 30 9 16 1019.7 1019.5 0.0
01/04:30pm 17.7 12.8 2.1 35 7.1 SE 17 28 9 15 1019.0 1018.8 0.0
01/04:00pm 18.5 13.6 1.9 33 7.5 ESE 17 26 9 14 1018.5 1018.3 0.0
01/03:30pm 19.3 14.7 1.8 31 8.0 SSE 15 24 8 13 1018.1 1017.9 0.0
01/03:00pm 20.0 14.0 -3.0 21 9.6 S 19 26 10 14 1017.9 1017.7 0.0
01/02:30pm 20.1 14.5 -2.9 21 9.6 S 17 28 9 15 1017.9 1017.7 0.0
01/02:00pm 20.3 14.2 -2.1 22 9.5 S 20 28 11 15 1018.0 1017.8 0.0
01/01:30pm 20.5 15.0 -1.9 22 9.6 SSW 17 33 9 18 1018.0 1017.8 0.0
01/01:00pm 20.1 14.7 -4.2 19 9.9 S 15 22 8 12 1018.2 1018.0 0.0
01/12:30pm 19.4 12.5 -6.2 17 10.0 S 22 33 12 18 1018.2 1018.0 0.0
01/12:00pm 19.6 12.9 -3.9 20 9.6 SSW 22 30 12 16 1018.4 1018.2 0.0
01/11:30am 19.4 12.6 -2.2 23 9.1 SW 24 41 13 22 1018.2 1018.0 0.0
01/11:00am 18.7 10.1 -4.0 21 9.1 SW 32 43 17 23 1018.3 1018.1 0.0
01/10:30am 18.0 10.1 -4.6 21 8.9 SW 28 56 15 30 1018.2 1018.0 0.0
01/10:29am 18.1 10.4 -3.3 23 8.7 SW 28 56 15 30 1018.2 1018.0 0.0
01/10:00am 17.3 9.9 -3.4 24 8.3 SW 26 39 14 21 1018.2 1018.0 0.0
01/09:30am 16.6 7.5 -3.5 25 8.0 SW 35 59 19 32 1018.4 1018.3 0.0
01/09:24am 16.8 8.4 -2.8 26 8.0 SW 32 59 17 32 1018.2 1018.1 0.0
01/09:00am 16.2 5.4 -3.3 26 7.8 WSW 44 57 24 31 1017.8 1017.7 0.0
01/08:30am 16.0 6.6 -2.5 28 7.5 WSW 37 52 20 28 1017.3 1017.3 0.0
01/08:17am 15.8 6.6 -1.7 30 7.2 WSW 37 56 20 30 1017.0 1017.0 0.0
01/08:00am 15.2 5.9 -1.8 31 6.9 WSW 37 52 20 28 1016.6 1016.6 0.0
01/07:42am 14.8 5.0 -0.5 35 6.4 SW 41 61 22 33 1016.3 1016.3 0.0
01/07:30am 14.6 4.8 -0.3 36 6.3 WSW 41 56 22 30 1016.2 1016.2 0.0
01/07:00am 14.1 5.1 0.4 39 5.8 WSW 37 48 20 26 1015.9 1015.9 0.0
01/06:30am 14.0 4.5 -0.4 37 6.0 WSW 39 48 21 26 1015.3 1015.3 0.0
01/06:00am 13.9 4.8 -0.5 37 6.0 SW 37 56 20 30 1015.0 1015.0 0.0
01/05:32am 14.4 6.1 -1.6 33 6.5 SW 32 50 17 27 1014.6 1014.6 0.0
01/05:30am 14.5 6.0 -1.6 33 6.6 SW 33 50 18 27 1014.6 1014.6 0.0
01/05:24am 14.7 6.8 -1.8 32 6.7 SW 30 50 16 27 1014.4 1014.4 0.0
01/05:07am 15.2 5.6 -1.4 32 6.8 SW 39 54 21 29 1013.9 1013.8 0.0
01/05:00am 14.9 9.7 0.0 36 6.3 SSW 17 26 9 14 1013.7 1013.6 0.0
01/04:30am 16.2 12.0 1.9 38 6.4 SSW 13 20 7 11 1012.9 1012.8 0.0
01/04:00am 16.6 12.3 3.3 41 6.1 SSW 15 22 8 12 1012.0 1011.9 0.0
01/03:30am 17.1 13.2 5.4 46 5.7 SSW 15 20 8 11 1011.5 1011.4 0.0
01/03:00am 18.0 13.9 6.2 46 5.8 SSW 17 26 9 14 1011.1 1011.0 0.0
01/02:30am 18.6 13.6 6.4 45 6.1 SSW 22 37 12 20 1010.5 1010.4 0.0
01/02:00am 19.8 13.4 5.1 38 7.2 SW 28 41 15 22 1009.5 1009.4 0.0
01/01:48am 21.1 14.4 3.8 32 8.3 SW 28 46 15 25 1009.1 1009.0 0.0
01/01:30am 22.1 16.3 2.2 27 9.4 SW 22 33 12 18 1008.3 1008.2 0.0
01/01:00am 22.3 18.7 0.8 24 9.9 W 9 24 5 13 1007.6 1007.5 0.0
01/12:30am 23.1 18.3 0.2 22 10.5 W 15 22 8 12 1007.5 1007.4 0.0
01/12:00am 22.9 18.3 1.3 24 10.1 NNW 15 22 8 12 1007.6 1007.5 0.0
 
Date/Time
EST
Tmp

°C
App
Tmp
°C
Dew
Point
°C
Rel
Hum
%
Delta-T

°C
Wind Press
QNH
hPa
Press
MSL
hPa
Rain
since
9 am
mm
Dir
 
Spd
km/h
Gust
km/h
Spd
kts
Gust
kts
30/11:30pm 22.6 18.8 3.7 29 9.2 NNW 13 17 7 9 1007.4 1007.3 0.0
30/11:00pm 24.7 20.4 3.4 25 10.5 NNW 15 20 8 11 1007.5 1007.4 0.0
30/10:30pm 24.8 20.4 4.5 27 10.2 NNW 17 26 9 14 1007.7 1007.6 0.0
30/10:00pm 25.2 20.9 5.4 28 10.1 NW 17 28 9 15 1007.9 1007.8 0.0
30/09:30pm 23.9 20.9 5.8 31 9.2 NW 11 13 6 7 1007.8 1007.7 0.0
30/09:00pm 24.3 20.7 5.1 29 9.7 NNW 13 17 7 9 1007.8 1007.7 0.0
30/08:30pm 26.2 22.3 5.2 26 10.8 NNW 15 20 8 11 1007.8 1007.7 0.0
30/08:00pm 25.9 21.9 4.9 26 10.7 NNW 15 22 8 12 1007.8 1007.7 0.0
30/07:30pm 26.5 22.9 4.9 25 11.0 NNW 13 19 7 10 1007.7 1007.6 0.0
30/07:00pm 25.9 21.9 4.9 26 10.7 NW 15 19 8 10 1007.7 1007.6 0.0
30/06:30pm 26.2 22.3 5.2 26 10.8 NW 15 24 8 13 1007.7 1007.6 0.0
30/06:00pm 27.8 23.4 4.8 23 11.8 WNW 17 26 9 14 1007.5 1007.4 0.0
30/05:30pm 29.3 24.5 4.7 21 12.7 WNW 19 26 10 14 1007.1 1007.0 0.0
30/05:00pm 30.6 25.3 5.1 20 13.4 WNW 22 33 12 18 1007.3 1007.2 0.0
30/04:30pm 31.1 25.0 4.8 19 13.8 WNW 26 33 14 18 1007.3 1007.2 0.0
30/04:13pm 31.4 22.6 3.4 17 14.3 WNW 39 57 21 31 1007.2 1007.1 0.0
30/04:00pm 31.6 21.7 2.7 16 14.7 WNW 44 61 24 33 1007.2 1007.1 0.0
30/03:30pm 32.3 23.8 3.3 16 14.9 WNW 37 59 20 32 1007.2 1007.1 0.0
30/03:18pm 32.6 24.2 3.5 16 15.0 WNW 37 63 20 34 1007.1 1007.0 0.0
30/03:00pm 32.9 25.4 4.6 17 15.0 WNW 33 48 18 26 1007.2 1007.1 0.0
30/02:30pm 33.1 26.8 5.6 18 14.8 NW 28 39 15 21 1007.5 1007.4 0.0
30/02:07pm 32.9 25.4 4.6 17 14.9 NW 33 54 18 29 1008.0 1007.9 0.0
30/02:00pm 32.9 25.8 5.5 18 14.7 NW 32 48 17 26 1008.2 1008.1 0.0
30/01:30pm 32.7 24.8 4.5 17 14.8 WNW 35 52 19 28 1008.8 1008.7 0.0
30/01:16pm 33.0 25.2 4.7 17 15.0 WNW 35 54 19 29 1008.9 1008.8 0.0
30/01:00pm 32.8 24.6 4.6 17 14.9 WNW 37 56 20 30 1008.9 1008.8 0.0
30/12:50pm 32.7 25.6 3.6 16 15.1 WNW 30 50 16 27 1009.0 1008.9 0.0
30/12:30pm 32.4 25.4 5.8 19 14.3 WNW 32 43 17 23 1009.4 1009.3 0.0
30/12:11pm 31.4 24.6 5.0 19 13.9 NW 30 35 16 19 1009.9 1009.8 0.0
30/12:00pm 31.0 29.2 9.3 26 12.2 NW 9 15 5 8 1010.2 1010.1 0.0
30/11:30am 29.7 26.2 10.3 30 11.0 N 19 28 10 15 1010.7 1010.6 0.0
30/11:00am 26.4 26.1 11.3 39 8.6 ESE 4 9 2 5 1011.6 1011.5 0.0
30/10:30am 24.6 23.7 11.5 44 7.4 NE 7 13 4 7 1012.1 1012.0 0.0
30/10:00am 22.5 21.2 11.3 49 6.3 N 9 11 5 6 1012.7 1012.6 0.0
30/09:30am 23.5 21.0 11.2 46 6.9 N 15 19 8 10 1013.2 1013.1 0.0
30/09:00am 21.2 20.5 12.1 56 5.1 NNE 7 9 4 5 1013.5 1013.4 0.0
30/08:30am 20.4 19.9 11.9 58 4.7 NNE 6 9 3 5 1013.7 1013.6 0.0
30/08:00am 18.6 18.7 12.6 68 3.4 NNE 4 7 2 4 1013.7 1013.6 0.0
30/07:30am 15.6 15.2 12.4 81 1.8 SW 6 11 3 6 1013.7 1013.6 0.0
30/07:00am 13.3 12.9 11.0 86 1.2 SW 4 6 2 3 1013.5 1013.4 0.0
30/06:30am 11.7 10.5 10.4 92 0.7 SW 7 9 4 5 1013.5 1013.4 0.0
30/06:00am 10.5 9.1 9.4 93 0.6 WSW 7 11 4 6 1013.3 1013.2 0.0
30/05:30am 10.9 9.6 10.0 94 0.5 WSW 7 9 4 5 1013.0 1012.9 0.0
30/05:00am 10.8 9.5 10.0 95 0.4 SW 7 9 4 5 1012.8 1012.7 0.0
30/04:30am 10.8 9.9 9.4 91 0.7 E 4 7 2 4 1013.1 1013.0 0.0
30/04:00am 11.4 10.6 9.8 90 0.8 E 4 6 2 3 1013.0 1012.9 0.0
30/03:30am 11.8 11.0 9.7 87 1.1 E 4 4 2 2 1013.0 1012.9 0.0
30/03:00am 12.3 11.6 10.2 87 1.1 E 4 6 2 3 1013.3 1013.2 0.0
30/02:30am 11.8 10.4 9.7 87 1.1 E 7 9 4 5 1013.5 1013.4 0.0
30/02:00am 11.8 10.5 9.9 88 1.0 E 7 9 4 5 1013.8 1013.7 0.0
30/01:30am 12.3 11.2 9.9 85 1.2 E 6 7 3 4 1013.9 1013.8 0.0
30/01:00am 12.8 11.6 9.4 80 1.7 E 6 7 3 4 1014.2 1014.1 0.0
30/12:30am 13.7 12.8 9.4 75 2.2 E 4 6 2 3 1014.4 1014.4 0.0
30/12:00am 14.1 13.2 9.3 73 2.5 ENE 4 6 2 3 1014.6 1014.6 0.0
 
Date/Time
EST
Tmp

°C
App
Tmp
°C
Dew
Point
°C
Rel
Hum
%
Delta-T

°C
Wind Press
QNH
hPa
Press
MSL
hPa
Rain
since
9 am
mm
Dir
 
Spd
km/h
Gust
km/h
Spd
kts
Gust
kts
29/11:30pm 14.8 14.1 8.7 67 3.1 NE 2 6 1 3 1014.6 1014.6 0.0
29/11:00pm 15.4 15.0 8.4 63 3.6 CALM 0 0 0 0 1014.6 1014.6 0.0

Latest Capital City Observations: Canberra | Sydney | Melbourne | Brisbane | Adelaide | Perth | Hobart | Darwin

Other Formats:

Comma delimited format used in spreadsheet applications
http://www.bom.gov.au/fwo/IDN60901/IDN60901.94752.axf

JavaScript Object Notation format (JSON) in row-major order
http://www.bom.gov.au/fwo/IDN60901/IDN60901.94752.json